Terminal Aerodrome Forecast
Issued by NWS

Home | Current Version | Previous Version | Text Only | Print | Product List | Glossary Off
Versions: 1 2 3 4 5 6 7 8 9 10 11 12 13 14 15 16 17 18 19 20 21 22 23 24 25 26 27 28 29 30 31 32 33 34 35 36 37 38 39 40 41 42 43 44 45 46 47 48 49 50

000
FTUS41 KCTP 261121
TAFBFD
TAF
KBFD 261121Z 2612/2712 00000KT P6SM VCSH SCT050 BKN070
     FM261500 20008KT P6SM BKN050
     FM261800 20010KT P6SM VCSH BKN050
     FM270800 19005KT 6SM BR OVC025=

USA.gov is the U.S. government's official web portal to all federal, state and local government web resources and services.